createdAt,value
2019-01-02T00:03:05.094Z,99279.77
2019-01-02T00:07:22.977Z,99295.42
2019-01-02T00:11:41.032Z,99302.36
2019-01-02T00:16:06.082Z,99294.39
2019-01-02T00:20:30.710Z,99299.48
2019-01-02T00:29:31.971Z,99279.02
2019-01-02T00:33:50.245Z,99298.28
2019-01-02T00:42:52.435Z,99310.53
2019-01-02T00:47:17.470Z,99315.05
2019-01-02T00:51:35.079Z,99308.66
2019-01-02T01:00:37.403Z,99320.69
2019-01-02T01:04:55.221Z,99333.23
2019-01-02T01:09:20.436Z,99335.36
2019-01-02T01:13:36.333Z,99338.80
2019-01-02T01:18:01.760Z,99344.41
2019-01-02T01:22:30.240Z,99351.39
2019-01-02T01:31:32.045Z,99371.05
2019-01-02T01:35:49.819Z,99371.01
2019-01-02T01:40:14.829Z,99362.66
2019-01-02T01:44:32.765Z,99377.61
2019-01-02T01:48:58.053Z,99381.89
2019-01-02T01:53:17.551Z,99392.89
2019-01-02T02:02:19.071Z,99402.38
2019-01-02T02:06:34.960Z,99402.52
2019-01-02T02:10:52.980Z,99398.83
2019-01-02T02:15:37.390Z,99387.71
2019-01-02T02:19:55.531Z,99380.45
2019-01-02T02:24:21.017Z,99370.97
2019-01-02T02:28:39.309Z,99364.99
2019-01-02T02:33:04.421Z,99371.80
2019-01-02T02:37:20.431Z,99373.69
2019-01-02T02:50:58.867Z,99375.34
2019-01-02T02:55:27.064Z,99370.97
2019-01-02T02:59:52.097Z,99380.54
2019-01-02T03:04:09.540Z,99377.78
2019-01-02T03:08:34.856Z,99375.75
2019-01-02T03:12:52.547Z,99393.32
2019-01-02T03:17:17.886Z,99401.22
2019-01-02T03:21:56.841Z,99403.33
2019-01-02T03:26:22.056Z,99397.94
2019-01-02T03:30:38.145Z,99404.77
2019-01-02T03:34:58.053Z,99400.78
2019-01-02T03:39:23.085Z,99390.22
2019-01-02T03:43:40.573Z,99397.05
2019-01-02T03:48:05.693Z,99413.37
2019-01-02T03:52:23.358Z,99413.27
2019-01-02T03:56:41.312Z,99424.14
2019-01-02T04:01:06.408Z,99421.00
2019-01-02T04:05:25.142Z,99424.28
2019-01-02T04:09:42.697Z,99430.47
2019-01-02T04:14:00.364Z,99413.64
2019-01-02T04:18:25.426Z,99420.29
2019-01-02T04:22:43.248Z,99423.80
2019-01-02T04:27:00.842Z,99430.23
2019-01-02T04:35:52.690Z,99425.24
2019-01-02T04:40:11.313Z,99428.73
2019-01-02T04:44:36.326Z,99429.80
2019-01-02T04:48:53.843Z,99440.39
2019-01-02T04:53:11.838Z,99436.92
2019-01-02T04:57:36.856Z,99440.49
2019-01-02T05:01:54.620Z,99422.00
2019-01-02T05:06:19.646Z,99432.37
2019-01-02T05:10:38.967Z,99430.94
2019-01-02T05:15:15.140Z,99434.27
2019-01-02T05:19:40.145Z,99446.02
2019-01-02T05:23:58.304Z,99458.70
2019-01-02T05:28:23.363Z,99452.90
2019-01-02T05:32:40.950Z,99451.04
2019-01-02T05:41:42.406Z,99461.14
2019-01-02T05:46:00.586Z,99459.63
2019-01-02T05:50:19.310Z,99456.96
2019-01-02T05:54:44.336Z,99451.42
2019-01-02T05:59:01.990Z,99441.48
2019-01-02T06:03:27.076Z,99437.78
2019-01-02T06:07:45.350Z,99435.36
2019-01-02T06:12:03.093Z,99443.09
2019-01-02T06:16:20.843Z,99454.63
2019-01-02T06:20:36.770Z,99458.92
2019-01-02T06:25:01.805Z,99465.50
2019-01-02T06:29:19.829Z,99452.83
2019-01-02T06:33:44.899Z,99452.59
2019-01-02T06:38:02.557Z,99459.31
2019-01-02T06:42:27.579Z,99461.24
2019-01-02T06:46:45.656Z,99452.36
2019-01-02T06:51:10.687Z,99455.36
2019-01-02T06:55:28.266Z,99461.27
2019-01-02T07:04:29.545Z,99462.77
2019-01-02T07:08:47.804Z,99471.44
2019-01-02T07:13:05.323Z,99475.75
2019-01-02T07:17:23.189Z,99476.88
2019-01-02T07:21:49.211Z,99484.34
2019-01-02T07:26:07.413Z,99493.66
2019-01-02T07:30:25.416Z,99497.72
2019-01-02T07:35:29.019Z,99500.94
2019-01-02T07:40:06.188Z,99496.63
2019-01-02T07:45:09.787Z,99487.17
2019-01-02T07:49:46.975Z,99507.16
2019-01-02T07:54:32.849Z,99512.73
2019-01-02T07:58:51.997Z,99514.38
2019-01-02T08:03:37.802Z,99521.18
2019-01-02T08:08:00.557Z,99523.34
2019-01-02T08:17:38.266Z,99517.41
2019-01-02T08:21:58.009Z,99524.61
2019-01-02T08:26:46.539Z,99520.45
2019-01-02T08:31:23.804Z,99534.18
2019-01-02T08:36:27.408Z,99536.59
2019-01-02T08:41:04.873Z,99535.24
2019-01-02T08:45:50.739Z,99547.09
2019-01-02T08:55:53.845Z,99552.53
2019-01-02T09:00:17.663Z,99558.87
2019-01-02T09:20:13.489Z,99588.47
2019-01-02T09:29:50.679Z,99589.24
2019-01-02T10:25:59.432Z,99576.30
2019-01-02T10:55:22.675Z,99575.43
2019-01-02T11:53:51.693Z,99528.06
2019-01-02T11:58:16.730Z,99526.05
2019-01-02T12:02:34.817Z,99511.50
2019-01-02T12:06:59.924Z,99507.98
2019-01-02T12:11:21.646Z,99516.27
2019-01-02T12:15:46.681Z,99502.66
2019-01-02T12:20:04.683Z,99508.10
2019-01-02T12:24:29.692Z,99509.22
2019-01-02T12:28:47.800Z,99499.44
2019-01-02T12:33:12.852Z,99502.70
2019-01-02T12:37:32.431Z,99506.86
2019-01-02T12:41:57.517Z,99499.97
2019-01-02T12:46:15.204Z,99500.09
2019-01-02T12:56:16.707Z,99496.00
2019-01-02T13:00:39.156Z,99492.23
2019-01-02T13:05:01.347Z,99495.99
2019-01-02T13:09:38.439Z,99511.71
2019-01-02T13:30:54.458Z,99544.22
2019-01-02T13:59:39.487Z,99553.83
2019-01-02T14:08:03.418Z,99565.65
2019-01-02T14:12:09.121Z,99565.73
2019-01-02T14:16:14.907Z,99560.47
2019-01-02T14:20:20.640Z,99569.81
2019-01-02T14:24:26.339Z,99573.08
2019-01-02T14:28:32.006Z,99578.28
2019-01-02T14:32:37.722Z,99580.69
2019-01-02T14:36:43.423Z,99583.70
2019-01-02T14:40:49.110Z,99582.57
2019-01-02T14:44:54.787Z,99590.13
2019-01-02T14:49:00.466Z,99584.64
2019-01-02T14:53:06.294Z,99597.34
2019-01-02T14:57:12.098Z,99612.87
2019-01-02T15:01:18.263Z,99617.52
2019-01-02T15:05:23.935Z,99616.84
2019-01-02T15:09:29.632Z,99625.87
2019-01-02T15:13:35.310Z,99628.73
2019-01-02T15:17:41.004Z,99626.02
2019-01-02T15:21:46.706Z,99633.62
2019-01-02T15:25:52.366Z,99646.09
2019-01-02T15:29:58.047Z,99650.11
2019-01-02T15:34:03.811Z,99648.53
2019-01-02T15:38:09.500Z,99652.20
2019-01-02T15:42:16.135Z,99653.28
2019-01-02T15:46:21.869Z,99662.16
2019-01-02T15:50:27.566Z,99668.19
2019-01-02T15:54:33.270Z,99661.45
2019-01-02T15:58:39.015Z,99668.92
2019-01-02T16:02:44.699Z,99677.88
2019-01-02T16:06:50.374Z,99682.52
2019-01-02T16:10:56.059Z,99693.83
2019-01-02T16:15:01.758Z,99697.89
2019-01-02T16:19:08.429Z,99714.09
2019-01-02T16:23:14.161Z,99713.22
2019-01-02T16:27:19.875Z,99721.42
2019-01-02T16:31:25.650Z,99723.73
2019-01-02T16:35:31.338Z,99730.34
2019-01-02T16:39:37.041Z,99725.43
2019-01-02T16:43:42.814Z,99722.52
2019-01-02T16:47:48.506Z,99733.95
2019-01-02T16:51:54.364Z,99739.95
2019-01-02T16:56:00.114Z,99744.02
2019-01-02T17:00:09.990Z,99750.22
2019-01-02T17:04:15.696Z,99760.81
2019-01-02T17:08:21.391Z,99757.75
2019-01-02T17:12:27.104Z,99749.19
2019-01-02T17:16:32.913Z,99756.44
2019-01-02T17:20:38.575Z,99754.69
2019-01-02T17:24:44.284Z,99754.45
2019-01-02T17:28:50.031Z,99757.48
2019-01-02T17:32:55.731Z,99767.63
2019-01-02T17:37:01.415Z,99779.22
2019-01-02T17:41:07.122Z,99779.24
2019-01-02T17:45:12.817Z,99785.14
2019-01-02T17:49:18.496Z,99782.75
2019-01-02T17:53:24.206Z,99796.25
2019-01-02T17:57:29.891Z,99802.50
2019-01-02T18:01:35.600Z,99800.99
2019-01-02T18:05:42.628Z,99811.95
2019-01-02T18:09:48.421Z,99810.92
2019-01-02T18:13:54.102Z,99817.07
2019-01-02T18:17:59.780Z,99828.10
2019-01-02T18:22:05.562Z,99818.56
2019-01-02T18:26:11.266Z,99825.35
2019-01-02T18:30:16.954Z,99825.27
2019-01-02T18:34:22.645Z,99825.61
2019-01-02T18:38:28.302Z,99834.36
2019-01-02T18:42:34.035Z,99836.72
2019-01-02T18:46:39.804Z,99843.52
2019-01-02T18:50:45.572Z,99850.27
2019-01-02T18:54:51.241Z,99857.51
2019-01-02T18:58:56.951Z,99862.27
2019-01-02T19:03:02.715Z,99863.40
2019-01-02T19:07:08.410Z,99865.41
2019-01-02T19:11:14.124Z,99862.93
2019-01-02T19:15:19.804Z,99866.28
2019-01-02T19:19:25.510Z,99869.97
2019-01-02T19:23:31.208Z,99878.05
2019-01-02T19:27:36.982Z,99877.81
2019-01-02T19:31:42.662Z,99873.70
2019-01-02T19:35:48.351Z,99888.66
2019-01-02T19:39:54.058Z,99890.91
2019-01-02T19:43:59.755Z,99896.80
2019-01-02T19:48:05.443Z,99893.92
2019-01-02T19:52:11.114Z,99899.58
2019-01-02T19:56:17.069Z,99895.41
2019-01-02T20:00:22.782Z,99900.75
2019-01-02T20:04:29.449Z,99902.73
2019-01-02T20:08:35.181Z,99901.91
2019-01-02T20:12:40.945Z,99898.32
2019-01-02T20:16:46.672Z,99895.34
2019-01-02T20:20:52.373Z,99892.34
2019-01-02T20:24:58.070Z,99895.09
2019-01-02T20:29:03.749Z,99895.19
2019-01-02T20:33:09.448Z,99904.55
2019-01-02T20:37:15.125Z,99903.63
2019-01-02T20:41:20.891Z,99905.72
2019-01-02T20:45:26.599Z,99910.63
2019-01-02T20:49:33.275Z,99918.88
2019-01-02T20:53:39.016Z,99917.38
2019-01-02T20:57:44.716Z,99923.00
2019-01-02T21:01:50.495Z,99916.16
2019-01-02T21:05:56.241Z,99925.14
2019-01-02T21:10:01.916Z,99928.55
2019-01-02T21:14:07.581Z,99919.42
2019-01-02T21:18:13.289Z,99925.70
2019-01-02T21:22:19.070Z,99920.48
2019-01-02T21:26:24.821Z,99922.45
2019-01-02T21:30:30.515Z,99915.58
2019-01-02T21:34:36.239Z,99919.68
2019-01-02T21:38:42.036Z,99924.33
2019-01-02T21:42:47.728Z,99926.91
2019-01-02T21:46:53.422Z,99926.27
2019-01-02T21:50:59.165Z,99934.59
2019-01-02T21:55:49.896Z,99937.41
2019-01-02T21:59:55.592Z,99934.14
2019-01-02T22:04:01.338Z,99935.56
2019-01-02T22:08:07.094Z,99936.31
2019-01-02T22:12:12.790Z,99934.22
2019-01-02T22:16:18.459Z,99928.31
2019-01-02T22:20:24.177Z,99935.26
2019-01-02T22:24:31.501Z,99939.37
2019-01-02T22:28:37.173Z,99945.02
2019-01-02T22:32:42.901Z,99940.34
2019-01-02T22:36:48.578Z,99938.00
2019-01-02T22:40:54.269Z,99938.63
2019-01-02T22:45:00.035Z,99953.36
2019-01-02T22:49:05.706Z,99958.75
2019-01-02T22:53:11.394Z,99956.57
2019-01-02T22:57:17.087Z,99963.42
2019-01-02T23:01:24.646Z,99970.63
2019-01-02T23:05:44.061Z,99974.64
2019-01-02T23:09:57.124Z,99975.00
2019-01-02T23:14:22.376Z,99977.38
2019-01-02T23:18:29.776Z,99983.29
2019-01-02T23:22:45.978Z,99987.70
2019-01-02T23:27:02.206Z,99993.60
2019-01-02T23:31:07.757Z,100003.30
2019-01-02T23:35:13.429Z,100003.40
2019-01-02T23:39:29.813Z,100006.19
2019-01-02T23:43:42.992Z,100013.84
2019-01-02T23:48:03.912Z,100016.77
2019-01-02T23:52:22.961Z,100016.60
2019-01-02T23:56:30.285Z,100011.95
